createdAt,value
2023-04-18T00:00:39.421Z,32.19
2023-04-18T00:01:39.498Z,32.17
2023-04-18T00:02:39.580Z,32.15
2023-04-18T00:03:39.809Z,32.17
2023-04-18T00:04:39.749Z,32.15
2023-04-18T00:05:39.682Z,32.14
2023-04-18T00:06:39.750Z,32.16
2023-04-18T00:07:39.787Z,32.14
2023-04-18T00:08:39.864Z,32.13
2023-04-18T00:09:39.952Z,32.13
2023-04-18T00:10:39.973Z,32.12
2023-04-18T00:11:40.020Z,32.12
2023-04-18T00:12:40.063Z,32.13
2023-04-18T00:13:40.131Z,32.11
2023-04-18T00:14:40.204Z,32.12
2023-04-18T00:15:40.245Z,32.09
2023-04-18T00:16:40.402Z,32.09
2023-04-18T00:17:40.457Z,32.10
2023-04-18T00:18:40.377Z,32.12
2023-04-18T00:19:40.414Z,32.09
2023-04-18T00:20:40.490Z,32.13
2023-04-18T00:21:40.523Z,32.13
2023-04-18T00:22:40.579Z,32.09
2023-04-18T00:23:40.632Z,32.08
2023-04-18T00:24:40.658Z,32.07
2023-04-18T00:25:40.729Z,32.07
2023-04-18T00:26:40.769Z,32.06
2023-04-18T00:27:40.809Z,32.07
2023-04-18T00:28:40.849Z,32.07
2023-04-18T00:29:40.915Z,32.05
2023-04-18T00:30:40.988Z,32.05
2023-04-18T00:31:41.045Z,32.07
2023-04-18T00:32:41.117Z,32.08
2023-04-18T00:33:41.188Z,32.07
2023-04-18T00:34:41.164Z,32.06
2023-04-18T00:35:41.224Z,32.06
2023-04-18T00:36:41.297Z,32.06
2023-04-18T00:37:41.328Z,32.07
2023-04-18T00:38:41.398Z,32.07
2023-04-18T00:39:41.486Z,32.08
2023-04-18T00:40:41.499Z,32.06
2023-04-18T00:41:41.544Z,32.06
2023-04-18T00:42:41.632Z,32.08
2023-04-18T00:43:41.640Z,32.08
2023-04-18T00:44:41.678Z,32.08
2023-04-18T00:45:41.718Z,32.08
2023-04-18T00:46:41.806Z,32.06
2023-04-18T00:47:41.841Z,32.08
2023-04-18T00:48:41.859Z,32.08
2023-04-18T00:49:41.978Z,32.07
2023-04-18T00:50:41.952Z,32.05
2023-04-18T00:51:41.999Z,32.06
2023-04-18T00:52:42.054Z,32.01
2023-04-18T00:53:42.104Z,32.04
2023-04-18T00:54:42.135Z,32.01
2023-04-18T00:55:42.223Z,32.02
2023-04-18T00:56:42.229Z,31.97
2023-04-18T00:57:42.321Z,31.98
2023-04-18T00:58:42.362Z,32.01
2023-04-18T00:59:42.451Z,32.01
2023-04-18T01:00:42.488Z,32.03
2023-04-18T01:01:42.556Z,32.00
2023-04-18T01:02:42.749Z,31.99
2023-04-18T01:03:42.961Z,31.96
2023-04-18T01:04:42.749Z,31.95
2023-04-18T01:05:42.721Z,31.96
2023-04-18T01:06:42.805Z,31.94
2023-04-18T01:07:42.866Z,31.94
2023-04-18T01:08:42.880Z,31.95
2023-04-18T01:09:42.988Z,31.93
2023-04-18T01:10:43.041Z,31.93
2023-04-18T01:11:43.077Z,31.95
2023-04-18T01:12:43.115Z,31.95
2023-04-18T01:13:43.157Z,31.95
2023-04-18T01:14:43.232Z,31.95
2023-04-18T01:15:43.313Z,31.95
2023-04-18T01:16:43.298Z,31.95
2023-04-18T01:17:43.456Z,31.96
2023-04-18T01:18:43.441Z,31.97
2023-04-18T01:19:43.489Z,31.96
2023-04-18T01:20:43.538Z,31.95
2023-04-18T01:21:43.581Z,31.96
2023-04-18T01:22:43.646Z,31.95
2023-04-18T01:23:43.716Z,31.95
2023-04-18T01:24:43.781Z,31.94
2023-04-18T01:25:43.844Z,31.93
2023-04-18T01:26:43.901Z,31.91
2023-04-18T01:27:43.978Z,31.91
2023-04-18T01:28:43.991Z,31.93
2023-04-18T01:29:44.066Z,31.94
2023-04-18T01:30:44.179Z,31.92
2023-04-18T01:31:44.267Z,31.91
2023-04-18T01:32:44.947Z,31.91
2023-04-18T01:33:44.273Z,31.93
2023-04-18T01:34:44.407Z,31.94
2023-04-18T01:35:44.396Z,31.93
2023-04-18T01:36:44.470Z,31.95
2023-04-18T01:37:44.487Z,31.92
2023-04-18T01:38:44.547Z,31.92
2023-04-18T01:39:44.612Z,31.92
2023-04-18T01:40:44.688Z,31.93
2023-04-18T01:41:44.740Z,31.93
2023-04-18T01:42:44.787Z,31.93
2023-04-18T01:43:44.858Z,31.94
2023-04-18T01:44:44.897Z,31.93
2023-04-18T01:45:44.960Z,31.93
2023-04-18T01:46:45.019Z,31.95
2023-04-18T01:47:45.044Z,31.93
2023-04-18T01:48:45.080Z,31.94
2023-04-18T01:49:45.154Z,31.90
2023-04-18T01:50:45.398Z,31.88
2023-04-18T01:51:45.263Z,31.87
2023-04-18T01:52:45.317Z,31.86
2023-04-18T01:53:45.422Z,31.85
2023-04-18T01:54:45.453Z,31.83
2023-04-18T01:55:45.496Z,31.86
2023-04-18T01:56:45.539Z,31.85
2023-04-18T01:57:45.608Z,31.82
2023-04-18T01:58:45.692Z,31.84
2023-04-18T01:59:45.724Z,31.85
2023-04-18T02:00:45.986Z,31.85
2023-04-18T02:01:45.950Z,31.85
2023-04-18T02:02:46.204Z,31.86
2023-04-18T02:03:46.175Z,31.85
2023-04-18T02:04:46.027Z,31.87
2023-04-18T02:05:46.119Z,31.87
2023-04-18T02:06:46.184Z,31.89
2023-04-18T02:07:46.238Z,31.89
2023-04-18T02:08:46.364Z,31.84
2023-04-18T02:09:46.328Z,31.88
2023-04-18T02:10:46.392Z,31.88
2023-04-18T02:11:46.441Z,31.89
2023-04-18T02:12:46.505Z,31.89
2023-04-18T02:13:46.569Z,31.89
2023-04-18T02:14:46.619Z,31.90
2023-04-18T02:15:46.703Z,31.89
2023-04-18T02:16:46.826Z,31.89
2023-04-18T02:17:46.817Z,31.87
2023-04-18T02:18:46.867Z,31.89
2023-04-18T02:19:46.933Z,31.89
2023-04-18T02:20:47.014Z,31.87
2023-04-18T02:21:47.006Z,31.87
2023-04-18T02:22:47.084Z,31.88
2023-04-18T02:23:47.151Z,31.86
2023-04-18T02:24:47.219Z,31.85
2023-04-18T02:25:47.245Z,31.84
2023-04-18T02:26:47.324Z,31.84
2023-04-18T02:27:47.379Z,31.81
2023-04-18T02:28:47.447Z,31.83
2023-04-18T02:29:47.919Z,31.81
2023-04-18T02:30:47.615Z,31.81
2023-04-18T02:31:47.714Z,31.81
2023-04-18T02:32:47.698Z,31.80
2023-04-18T02:33:47.731Z,31.80
2023-04-18T02:34:47.776Z,31.82
2023-04-18T02:35:47.851Z,31.81
2023-04-18T02:36:47.919Z,31.81
2023-04-18T02:37:47.968Z,31.82
2023-04-18T02:38:48.073Z,31.81
2023-04-18T02:39:48.143Z,31.80
2023-04-18T02:40:48.164Z,31.81
2023-04-18T02:41:48.198Z,31.81
2023-04-18T02:42:48.246Z,31.84
2023-04-18T02:43:48.300Z,31.80
2023-04-18T02:44:48.352Z,31.82
2023-04-18T02:45:48.451Z,31.83
2023-04-18T02:46:48.476Z,31.80
2023-04-18T02:47:55.572Z,31.83
2023-04-18T02:48:49.506Z,31.83
2023-04-18T02:49:48.519Z,31.81
2023-04-18T02:50:48.506Z,31.82
2023-04-18T02:51:48.498Z,31.82
2023-04-18T02:52:48.502Z,31.82
2023-04-18T02:53:48.493Z,31.84
2023-04-18T02:54:48.482Z,31.81
2023-04-18T02:55:48.479Z,31.81
2023-04-18T02:56:48.492Z,31.79
2023-04-18T02:57:48.487Z,31.79
2023-04-18T02:58:48.472Z,31.80
2023-04-18T02:59:48.523Z,31.77
2023-04-18T03:00:48.629Z,31.76
2023-04-18T03:01:48.720Z,31.77
2023-04-18T03:02:48.761Z,31.76
2023-04-18T03:03:48.700Z,31.76
2023-04-18T03:04:48.803Z,31.77
2023-04-18T03:05:48.795Z,31.75
2023-04-18T03:06:49.004Z,31.77
2023-04-18T03:07:48.879Z,31.76
2023-04-18T03:08:48.946Z,31.75
2023-04-18T03:09:49.013Z,31.75
2023-04-18T03:10:49.005Z,31.76
2023-04-18T03:11:49.091Z,31.75
2023-04-18T03:12:49.121Z,31.74
2023-04-18T03:13:49.095Z,31.74
2023-04-18T03:14:49.143Z,31.77
2023-04-18T03:15:49.209Z,31.76
2023-04-18T03:16:49.229Z,31.76
2023-04-18T03:17:49.269Z,31.75
2023-04-18T03:18:49.314Z,31.77
2023-04-18T03:19:49.337Z,31.77
2023-04-18T03:20:49.421Z,31.77
2023-04-18T03:21:49.382Z,31.76
2023-04-18T03:22:49.410Z,31.77
2023-04-18T03:23:49.457Z,31.75
2023-04-18T03:24:49.539Z,31.72
2023-04-18T03:25:49.609Z,31.74
2023-04-18T03:26:49.650Z,31.74
2023-04-18T03:27:49.680Z,31.73
2023-04-18T03:28:49.721Z,31.74
2023-04-18T03:29:49.969Z,31.72
2023-04-18T03:30:49.807Z,31.70
2023-04-18T03:31:49.866Z,31.72
2023-04-18T03:32:49.928Z,31.69
2023-04-18T03:33:49.967Z,31.70
2023-04-18T03:34:50.018Z,31.69
2023-04-18T03:35:50.049Z,31.69
2023-04-18T03:36:50.066Z,31.68
2023-04-18T03:37:50.090Z,31.69
2023-04-18T03:38:50.154Z,31.71
2023-04-18T03:39:50.184Z,31.69
2023-04-18T03:40:50.199Z,31.70
2023-04-18T03:41:50.273Z,31.72
2023-04-18T03:42:50.296Z,31.73
2023-04-18T03:43:50.264Z,31.73
2023-04-18T03:44:50.307Z,31.75
2023-04-18T03:45:50.360Z,31.74
2023-04-18T03:46:50.371Z,31.76
2023-04-18T03:47:50.506Z,31.76
2023-04-18T03:48:50.481Z,31.75
2023-04-18T03:49:50.573Z,31.74
2023-04-18T03:50:50.573Z,31.75
2023-04-18T03:51:50.652Z,31.74
2023-04-18T03:52:50.713Z,31.75
2023-04-18T03:53:50.757Z,31.75
2023-04-18T03:54:50.760Z,31.72
2023-04-18T03:55:50.825Z,31.70
2023-04-18T03:56:50.839Z,31.71
2023-04-18T03:57:50.917Z,31.68
2023-04-18T03:58:50.964Z,31.71
2023-04-18T03:59:51.008Z,31.71
2023-04-18T04:00:51.069Z,31.69
2023-04-18T04:01:51.111Z,31.70
2023-04-18T04:02:51.420Z,31.69
2023-04-18T04:03:51.341Z,31.68
2023-04-18T04:04:51.327Z,31.68
2023-04-18T04:05:51.382Z,31.66
2023-04-18T04:06:51.401Z,31.68
2023-04-18T04:07:51.485Z,31.67
2023-04-18T04:08:51.512Z,31.66
2023-04-18T04:09:51.550Z,31.67
2023-04-18T04:10:51.635Z,31.66
2023-04-18T04:11:51.702Z,31.67
2023-04-18T04:12:51.766Z,31.68
2023-04-18T04:13:51.785Z,31.69
2023-04-18T04:14:51.854Z,31.68
2023-04-18T04:15:51.893Z,31.67
2023-04-18T04:16:52.011Z,31.66
2023-04-18T04:17:52.033Z,31.62
2023-04-18T04:18:52.102Z,31.63
2023-04-18T04:19:52.226Z,31.62
2023-04-18T04:20:52.168Z,31.61
2023-04-18T04:21:52.224Z,31.62
2023-04-18T04:22:52.292Z,31.62
2023-04-18T04:23:52.345Z,31.58
2023-04-18T04:24:52.392Z,31.57
2023-04-18T04:25:52.466Z,31.60
2023-04-18T04:26:52.521Z,31.59
2023-04-18T04:27:52.559Z,31.58
2023-04-18T04:28:52.622Z,31.60
2023-04-18T04:29:52.720Z,31.60
2023-04-18T04:30:52.718Z,31.59
2023-04-18T04:31:52.859Z,31.61
2023-04-18T04:32:52.892Z,31.59
2023-04-18T04:33:52.916Z,31.59
2023-04-18T04:34:52.939Z,31.59
2023-04-18T04:35:52.984Z,31.59
2023-04-18T04:36:53.038Z,31.59
2023-04-18T04:37:53.094Z,31.59
2023-04-18T04:38:53.139Z,31.60
2023-04-18T04:39:53.195Z,31.62
2023-04-18T04:40:53.174Z,31.58
2023-04-18T04:41:53.218Z,31.61
2023-04-18T04:42:53.240Z,31.60
2023-04-18T04:43:53.316Z,31.59
2023-04-18T04:44:53.294Z,31.59
2023-04-18T04:45:53.408Z,31.57
2023-04-18T04:46:55.065Z,31.56
2023-04-18T04:47:53.427Z,31.56
2023-04-18T04:48:53.385Z,31.55
2023-04-18T04:49:53.434Z,31.56
2023-04-18T04:50:53.465Z,31.55
2023-04-18T04:51:53.507Z,31.57
2023-04-18T04:52:53.529Z,31.54
2023-04-18T04:53:53.550Z,31.54
2023-04-18T04:54:53.679Z,31.50
2023-04-18T04:55:53.684Z,31.50
2023-04-18T04:56:53.820Z,31.48
2023-04-18T04:57:53.799Z,31.44
2023-04-18T04:58:53.932Z,31.44
2023-04-18T04:59:53.921Z,31.42
2023-04-18T05:00:54.051Z,31.43
2023-04-18T05:01:54.113Z,31.41
2023-04-18T05:02:54.213Z,31.41
2023-04-18T05:03:54.206Z,31.34
2023-04-18T05:04:54.166Z,31.34
2023-04-18T05:05:54.203Z,31.33
2023-04-18T05:06:54.254Z,31.35
2023-04-18T05:07:54.474Z,31.31
2023-04-18T05:08:54.546Z,31.32
2023-04-18T05:09:54.432Z,31.31
2023-04-18T05:10:54.490Z,31.29
2023-04-18T05:11:54.523Z,31.29
2023-04-18T05:12:54.578Z,31.31
2023-04-18T05:13:54.615Z,31.31
2023-04-18T05:14:54.653Z,31.29
2023-04-18T05:15:54.721Z,31.29
2023-04-18T05:16:54.804Z,31.26
2023-04-18T05:17:54.903Z,31.29
2023-04-18T05:18:54.848Z,31.28
2023-04-18T05:19:54.908Z,31.25
2023-04-18T05:20:54.974Z,31.27
2023-04-18T05:21:55.012Z,31.26
2023-04-18T05:22:55.536Z,31.27
2023-04-18T05:23:55.101Z,31.26
2023-04-18T05:24:55.176Z,31.25
2023-04-18T05:25:55.246Z,31.26
2023-04-18T05:26:55.315Z,31.24
2023-04-18T05:27:55.476Z,31.23
2023-04-18T05:28:55.403Z,31.22
2023-04-18T05:29:55.429Z,31.25
2023-04-18T05:30:55.529Z,31.27
2023-04-18T05:31:55.620Z,31.34
2023-04-18T05:32:55.602Z,31.41
2023-04-18T05:33:55.789Z,34.09
2023-04-18T05:34:55.706Z,34.64
2023-04-18T05:35:55.877Z,35.19
2023-04-18T05:36:55.811Z,34.37
2023-04-18T05:37:55.844Z,33.83
2023-04-18T05:38:55.910Z,34.03
2023-04-18T05:39:57.833Z,34.17
2023-04-18T05:40:56.033Z,34.76
2023-04-18T05:41:56.533Z,34.63
2023-04-18T05:42:56.050Z,35.51
2023-04-18T05:44:04.700Z,34.94
2023-04-18T05:44:57.010Z,34.88
2023-04-18T05:45:57.735Z,34.62
2023-04-18T05:46:55.953Z,33.70
2023-04-18T05:47:56.033Z,33.37
2023-04-18T05:48:55.920Z,33.09
2023-04-18T05:49:56.022Z,33.08
2023-04-18T05:50:55.926Z,32.94
2023-04-18T05:51:55.900Z,33.00
2023-04-18T05:52:56.009Z,33.06
2023-04-18T05:53:56.008Z,33.06
2023-04-18T05:54:56.116Z,33.13
2023-04-18T05:55:56.194Z,33.05
2023-04-18T05:56:56.178Z,32.98
2023-04-18T05:57:56.282Z,32.98
2023-04-18T05:58:56.370Z,32.94
2023-04-18T05:59:56.382Z,32.89
2023-04-18T06:00:56.428Z,32.84
2023-04-18T06:01:56.469Z,32.91
2023-04-18T06:02:56.776Z,33.04
2023-04-18T06:03:56.832Z,32.91
2023-04-18T06:04:56.822Z,32.91
2023-04-18T06:05:56.682Z,32.83
2023-04-18T06:06:56.759Z,32.63
2023-04-18T06:07:56.863Z,32.59
2023-04-18T06:08:56.875Z,32.56
2023-04-18T06:09:56.920Z,32.65
2023-04-18T06:10:57.002Z,32.58
2023-04-18T06:11:57.053Z,32.47
2023-04-18T06:12:57.094Z,32.37
2023-04-18T06:13:57.172Z,32.35
2023-04-18T06:14:57.237Z,32.32
2023-04-18T06:15:57.327Z,32.32
2023-04-18T06:16:57.375Z,32.28
2023-04-18T06:17:57.483Z,32.25
2023-04-18T06:18:59.539Z,32.20
2023-04-18T06:19:57.492Z,32.11
2023-04-18T06:20:57.451Z,32.06
2023-04-18T06:21:57.442Z,32.04
2023-04-18T06:22:57.470Z,31.98
2023-04-18T06:23:57.444Z,31.97
2023-04-18T06:24:57.469Z,32.38
2023-04-18T06:25:57.480Z,32.09
2023-04-18T06:26:57.451Z,31.97
2023-04-18T06:27:57.470Z,31.89
2023-04-18T06:28:57.423Z,31.83
2023-04-18T06:29:57.431Z,31.89
2023-04-18T06:30:57.430Z,31.85
2023-04-18T06:31:57.467Z,31.86
2023-04-18T06:32:57.491Z,31.91
2023-04-18T06:33:57.379Z,31.86
2023-04-18T06:34:57.395Z,31.84
2023-04-18T06:35:57.364Z,31.94
2023-04-18T06:36:57.343Z,32.03
2023-04-18T06:37:57.335Z,32.04
2023-04-18T06:38:57.522Z,32.48
2023-04-18T06:39:57.548Z,32.38
2023-04-18T06:40:57.322Z,32.58
2023-04-18T06:41:57.373Z,33.14
2023-04-18T06:42:57.376Z,32.54
2023-04-18T06:44:02.877Z,32.37
2023-04-18T06:44:58.525Z,32.32
2023-04-18T06:45:57.310Z,32.34
2023-04-18T06:46:57.297Z,32.36
2023-04-18T06:47:57.330Z,32.41
2023-04-18T06:48:57.322Z,32.25
2023-04-18T06:49:57.665Z,32.26
2023-04-18T06:50:57.295Z,32.30
2023-04-18T06:51:57.237Z,32.32
2023-04-18T06:52:57.313Z,32.46
2023-04-18T06:53:57.392Z,33.03
2023-04-18T06:54:57.370Z,32.68
2023-04-18T06:55:57.435Z,32.62
2023-04-18T06:56:57.526Z,32.59
2023-04-18T06:57:57.580Z,32.51
2023-04-18T06:58:57.612Z,32.45
2023-04-18T06:59:57.674Z,32.44
2023-04-18T07:00:58.050Z,32.47
2023-04-18T07:01:57.823Z,32.51
2023-04-18T07:02:58.174Z,32.63
2023-04-18T07:03:58.192Z,32.61
2023-04-18T07:04:57.988Z,32.58
2023-04-18T07:05:58.520Z,32.62
2023-04-18T07:06:58.165Z,32.71
2023-04-18T07:07:58.136Z,32.67
2023-04-18T07:08:58.276Z,32.66
2023-04-18T07:09:58.280Z,32.69
2023-04-18T07:10:58.330Z,32.70
2023-04-18T07:11:58.369Z,32.73
2023-04-18T07:12:58.425Z,32.78
2023-04-18T07:13:58.614Z,32.77
2023-04-18T07:14:58.527Z,32.87
2023-04-18T07:15:58.578Z,32.88
2023-04-18T07:16:58.684Z,32.84
2023-04-18T07:17:58.708Z,32.98
2023-04-18T07:18:58.890Z,32.95
2023-04-18T07:19:58.817Z,33.02
2023-04-18T07:20:58.862Z,32.99
2023-04-18T07:21:58.983Z,33.04
2023-04-18T07:22:58.972Z,33.06
2023-04-18T07:23:59.051Z,33.08
2023-04-18T07:24:59.103Z,33.17
2023-04-18T07:26:00.070Z,33.13
2023-04-18T07:26:59.211Z,33.15
2023-04-18T07:27:59.248Z,33.20
2023-04-18T07:28:59.324Z,33.28
2023-04-18T07:29:59.364Z,33.33
2023-04-18T07:30:59.478Z,33.46
2023-04-18T07:31:59.509Z,33.60
2023-04-18T07:32:59.603Z,34.04
2023-04-18T07:34:00.098Z,35.80
2023-04-18T07:34:59.740Z,35.13
2023-04-18T07:35:59.712Z,37.03
2023-04-18T07:36:59.752Z,36.68
2023-04-18T07:38:00.538Z,36.61
2023-04-18T07:39:00.027Z,36.32
2023-04-18T07:39:59.915Z,36.12
2023-04-18T07:40:59.926Z,35.27
2023-04-18T07:42:00.884Z,35.05
2023-04-18T07:42:59.870Z,34.46
2023-04-18T07:43:59.867Z,34.33
2023-04-18T07:45:00.541Z,34.31
2023-04-18T07:45:59.910Z,34.33
2023-04-18T07:46:59.893Z,34.24
2023-04-18T07:47:59.948Z,34.14
2023-04-18T07:48:59.819Z,34.07
2023-04-18T07:49:59.806Z,33.93
2023-04-18T07:51:00.551Z,33.98
2023-04-18T07:51:59.907Z,33.93
2023-04-18T07:52:59.942Z,34.11
2023-04-18T07:54:00.014Z,34.04
2023-04-18T07:55:00.071Z,33.91
2023-04-18T07:56:00.595Z,33.86
2023-04-18T07:57:00.193Z,33.98
2023-04-18T07:58:00.208Z,33.99
2023-04-18T07:59:01.095Z,33.99
2023-04-18T08:00:02.107Z,33.99
2023-04-18T08:01:00.537Z,33.98
2023-04-18T08:02:00.458Z,33.99
2023-04-18T08:03:00.566Z,34.07
2023-04-18T08:04:00.654Z,34.08
2023-04-18T08:05:00.900Z,34.16
2023-04-18T08:06:01.063Z,34.22
2023-04-18T08:07:00.668Z,34.29
2023-04-18T08:08:00.756Z,34.32
2023-04-18T08:09:00.766Z,34.24
2023-04-18T08:10:00.836Z,34.21
2023-04-18T08:11:00.888Z,34.16
2023-04-18T08:12:00.915Z,34.18
2023-04-18T08:13:00.963Z,34.20
2023-04-18T08:14:00.992Z,34.20
2023-04-18T08:15:01.062Z,34.26
2023-04-18T08:16:01.177Z,34.32
2023-04-18T08:17:01.233Z,34.36
2023-04-18T08:18:01.320Z,34.40
2023-04-18T08:19:01.243Z,34.41
2023-04-18T08:20:01.345Z,34.35
2023-04-18T08:21:01.317Z,34.62
2023-04-18T08:22:01.377Z,34.74
2023-04-18T08:23:07.901Z,34.86
2023-04-18T08:24:02.425Z,34.67
2023-04-18T08:25:04.984Z,34.63
2023-04-18T08:26:01.563Z,35.13
2023-04-18T08:27:01.386Z,35.40
2023-04-18T08:28:01.402Z,35.43
2023-04-18T08:29:01.464Z,35.75
2023-04-18T08:30:01.467Z,35.85
2023-04-18T08:31:01.605Z,36.18
2023-04-18T08:32:01.497Z,36.38
2023-04-18T08:33:01.520Z,36.28
2023-04-18T08:34:02.148Z,36.56
2023-04-18T08:35:01.555Z,36.53
2023-04-18T08:36:01.364Z,36.49
2023-04-18T08:37:01.428Z,36.61
2023-04-18T08:38:01.473Z,36.38
2023-04-18T08:39:02.081Z,37.21
2023-04-18T08:40:01.572Z,37.33
2023-04-18T08:41:02.583Z,37.05
2023-04-18T08:42:01.597Z,36.81
2023-04-18T08:43:01.661Z,36.44
2023-04-18T08:44:01.755Z,36.32
2023-04-18T08:45:01.702Z,36.20
2023-04-18T08:46:02.180Z,36.06
2023-04-18T08:47:01.749Z,36.03
2023-04-18T08:48:04.002Z,35.93
2023-04-18T08:49:01.767Z,36.15
2023-04-18T08:50:01.769Z,36.03
2023-04-18T08:51:02.347Z,35.91
2023-04-18T08:52:01.757Z,35.79
2023-04-18T08:53:01.865Z,35.82
2023-04-18T08:54:01.850Z,35.63
2023-04-18T08:55:02.057Z,35.59
2023-04-18T08:56:02.053Z,35.62
2023-04-18T08:57:01.817Z,35.43
2023-04-18T08:58:01.828Z,35.43
2023-04-18T08:59:01.844Z,35.12
2023-04-18T09:00:02.169Z,35.38
2023-04-18T09:01:01.933Z,35.24
2023-04-18T09:02:02.024Z,35.21
2023-04-18T09:03:01.878Z,34.87
2023-04-18T09:04:02.022Z,34.94
2023-04-18T09:05:02.027Z,34.91
2023-04-18T09:06:01.886Z,34.83
2023-04-18T09:07:01.972Z,35.04
2023-04-18T09:08:01.924Z,35.04
2023-04-18T09:09:01.933Z,35.45
2023-04-18T09:10:02.082Z,35.80
2023-04-18T09:11:02.066Z,35.31
2023-04-18T09:12:01.980Z,35.17
2023-04-18T09:13:02.032Z,35.35
2023-04-18T09:14:02.047Z,35.34
2023-04-18T09:15:02.115Z,35.33
2023-04-18T09:16:02.036Z,35.14
2023-04-18T09:17:02.212Z,35.13
2023-04-18T09:18:02.156Z,35.14
2023-04-18T09:19:02.147Z,35.25
2023-04-18T09:20:02.634Z,35.07
2023-04-18T09:21:02.634Z,35.05
2023-04-18T09:22:02.210Z,35.26
2023-04-18T09:23:02.170Z,35.18
2023-04-18T09:24:02.269Z,35.32
2023-04-18T09:25:02.260Z,35.49
2023-04-18T09:26:02.204Z,35.52
2023-04-18T09:27:02.232Z,35.94
2023-04-18T09:28:02.303Z,37.04
2023-04-18T09:29:02.308Z,37.07
2023-04-18T09:30:02.343Z,37.25
2023-04-18T09:31:02.394Z,37.09
2023-04-18T09:32:02.373Z,37.49
2023-04-18T09:33:05.133Z,38.02
2023-04-18T09:34:02.418Z,37.59
2023-04-18T09:35:04.394Z,37.82
2023-04-18T09:36:02.478Z,38.07
2023-04-18T09:37:02.474Z,38.57
2023-04-18T09:38:02.478Z,38.02
2023-04-18T09:39:02.521Z,37.55
2023-04-18T09:40:02.610Z,36.91
2023-04-18T09:41:02.536Z,36.67
2023-04-18T09:42:02.572Z,36.26
2023-04-18T09:43:02.592Z,36.01
2023-04-18T09:44:02.603Z,35.75
2023-04-18T09:45:02.668Z,35.46
2023-04-18T09:46:02.752Z,35.14
2023-04-18T09:47:02.651Z,34.97
2023-04-18T09:48:02.713Z,34.81
2023-04-18T09:49:02.826Z,34.66
2023-04-18T09:50:02.743Z,34.22
2023-04-18T09:51:03.151Z,34.33
2023-04-18T09:52:02.789Z,34.97
2023-04-18T09:53:02.829Z,34.49
2023-04-18T09:54:02.854Z,34.46
2023-04-18T09:55:02.892Z,34.48
2023-04-18T09:56:03.061Z,34.43
2023-04-18T09:57:03.155Z,34.49
2023-04-18T09:58:02.998Z,34.49
2023-04-18T09:59:03.093Z,34.54
2023-04-18T10:00:03.230Z,34.62
2023-04-18T10:01:03.082Z,34.75
2023-04-18T10:02:03.208Z,34.81
2023-04-18T10:03:03.143Z,34.80
2023-04-18T10:04:03.194Z,34.91
2023-04-18T10:05:03.205Z,34.95
2023-04-18T10:06:03.233Z,35.00
2023-04-18T10:07:03.203Z,34.98
2023-04-18T10:08:03.412Z,35.02
2023-04-18T10:09:03.430Z,35.00
2023-04-18T10:10:03.293Z,34.97
2023-04-18T10:11:03.329Z,34.94
2023-04-18T10:12:03.310Z,34.96
2023-04-18T10:13:03.414Z,34.91
2023-04-18T10:14:03.433Z,34.88
2023-04-18T10:15:03.421Z,34.88
2023-04-18T10:16:03.477Z,34.98
2023-04-18T10:17:03.472Z,35.01
2023-04-18T10:18:05.719Z,35.02
2023-04-18T10:19:03.465Z,35.04
2023-04-18T10:20:03.427Z,35.01
2023-04-18T10:21:03.446Z,34.94
2023-04-18T10:22:03.436Z,34.91
2023-04-18T10:23:03.404Z,34.89
2023-04-18T10:24:03.435Z,34.78
2023-04-18T10:25:03.421Z,34.69
2023-04-18T10:26:03.410Z,35.15
2023-04-18T10:27:03.626Z,35.58
2023-04-18T10:28:03.369Z,35.86
2023-04-18T10:29:03.361Z,35.68
2023-04-18T10:30:03.390Z,35.86
2023-04-18T10:31:04.271Z,35.64
2023-04-18T10:32:03.624Z,35.59
2023-04-18T10:33:03.424Z,35.70
2023-04-18T10:34:05.783Z,35.77
2023-04-18T10:35:03.337Z,35.68
2023-04-18T10:36:03.334Z,35.49
2023-04-18T10:37:03.320Z,35.27
2023-04-18T10:38:03.306Z,35.26
2023-04-18T10:39:03.353Z,35.43
2023-04-18T10:40:03.312Z,35.26
2023-04-18T10:41:03.287Z,35.11
2023-04-18T10:42:03.299Z,34.91
2023-04-18T10:43:03.278Z,34.82
2023-04-18T10:44:03.266Z,34.67
2023-04-18T10:45:03.317Z,34.47
2023-04-18T10:46:03.257Z,34.35
2023-04-18T10:47:03.924Z,34.22
2023-04-18T10:48:03.302Z,34.10
2023-04-18T10:49:03.662Z,34.04
2023-04-18T10:51:03.225Z,33.87
2023-04-18T10:52:03.287Z,33.84
2023-04-18T10:53:03.214Z,33.82
2023-04-18T10:54:03.208Z,33.79
2023-04-18T10:55:03.209Z,33.91
2023-04-18T10:56:03.219Z,34.00
2023-04-18T10:57:03.280Z,33.99
2023-04-18T10:58:03.189Z,34.00
2023-04-18T10:59:03.216Z,34.07
2023-04-18T11:00:03.236Z,34.13
2023-04-18T11:01:03.282Z,34.10
2023-04-18T11:02:03.224Z,34.18
2023-04-18T11:03:03.427Z,34.13
2023-04-18T11:04:03.310Z,34.10
2023-04-18T11:05:03.351Z,34.10
2023-04-18T11:06:03.335Z,34.07
2023-04-18T11:07:03.284Z,34.05
2023-04-18T11:08:03.338Z,34.04
2023-04-18T11:09:03.300Z,33.97
2023-04-18T11:10:03.348Z,33.93
2023-04-18T11:11:03.376Z,33.92
2023-04-18T11:12:03.394Z,33.90
2023-04-18T11:13:03.361Z,33.91
2023-04-18T11:14:03.366Z,33.90
2023-04-18T11:15:03.432Z,33.77
2023-04-18T11:16:03.507Z,33.79
2023-04-18T11:17:03.392Z,34.65
2023-04-18T11:18:04.181Z,35.47
2023-04-18T11:19:03.435Z,35.59
2023-04-18T11:20:03.513Z,35.04
2023-04-18T11:21:03.488Z,34.63
2023-04-18T11:22:03.638Z,34.53
2023-04-18T11:23:03.455Z,34.65
2023-04-18T11:24:03.469Z,34.81
2023-04-18T11:25:03.478Z,34.93
2023-04-18T11:26:03.439Z,34.90
2023-04-18T11:27:03.636Z,34.82
2023-04-18T11:28:03.481Z,34.68
2023-04-18T11:29:03.501Z,34.59
2023-04-18T11:30:03.523Z,34.40
2023-04-18T11:31:03.514Z,34.20
2023-04-18T11:32:03.649Z,34.13
2023-04-18T11:33:03.600Z,34.07
2023-04-18T11:34:03.786Z,33.93
2023-04-18T11:35:03.734Z,33.72
2023-04-18T11:36:03.682Z,33.61
2023-04-18T11:37:03.844Z,33.53
2023-04-18T11:38:03.767Z,33.45
2023-04-18T11:39:03.799Z,33.49
2023-04-18T11:40:03.829Z,33.47
2023-04-18T11:41:03.857Z,33.58
2023-04-18T11:42:03.891Z,33.66
2023-04-18T11:43:03.826Z,33.71
2023-04-18T11:44:03.821Z,33.63
2023-04-18T11:45:03.863Z,33.59
2023-04-18T11:46:03.896Z,33.49
2023-04-18T11:47:03.835Z,33.48
2023-04-18T11:48:03.861Z,33.44
2023-04-18T11:49:03.838Z,33.32
2023-04-18T11:50:03.831Z,33.31
2023-04-18T11:51:03.835Z,33.34
2023-04-18T11:52:03.838Z,33.39
2023-04-18T11:53:03.905Z,33.40
2023-04-18T11:54:03.928Z,33.47
2023-04-18T11:55:03.828Z,33.58
2023-04-18T11:56:03.919Z,33.69
2023-04-18T11:57:03.879Z,33.66
2023-04-18T11:58:03.899Z,33.69
2023-04-18T11:59:03.877Z,33.76
2023-04-18T12:00:03.890Z,33.81
2023-04-18T12:01:03.859Z,33.81
2023-04-18T12:03:04.067Z,33.74
2023-04-18T12:04:04.139Z,33.74
2023-04-18T12:05:04.124Z,33.71
2023-04-18T12:06:04.063Z,33.67
2023-04-18T12:07:04.014Z,33.58
2023-04-18T12:08:04.015Z,33.51
2023-04-18T12:09:04.100Z,33.48
2023-04-18T12:10:04.108Z,33.45
2023-04-18T12:11:04.134Z,33.44
2023-04-18T12:12:04.136Z,33.46
2023-04-18T12:13:04.147Z,33.47
2023-04-18T12:14:04.284Z,33.46
2023-04-18T12:15:04.205Z,33.40
2023-04-18T12:16:04.330Z,33.30
2023-04-18T12:17:04.251Z,33.32
2023-04-18T12:18:04.288Z,33.38
2023-04-18T12:19:04.285Z,33.79
2023-04-18T12:20:04.405Z,34.19
2023-04-18T12:21:04.327Z,33.61
2023-04-18T12:22:04.671Z,32.93
2023-04-18T12:23:05.122Z,33.80
2023-04-18T12:24:04.373Z,33.99
2023-04-18T12:25:04.445Z,33.62
2023-04-18T12:26:04.437Z,33.57
2023-04-18T12:27:04.639Z,33.71
2023-04-18T12:28:04.502Z,33.69
2023-04-18T12:29:04.516Z,33.80
2023-04-18T12:30:04.564Z,33.86
2023-04-18T12:31:04.608Z,33.33
2023-04-18T12:32:04.673Z,33.35
2023-04-18T12:33:04.697Z,33.32
2023-04-18T12:34:04.558Z,33.28
2023-04-18T12:35:04.545Z,33.11
2023-04-18T12:36:04.552Z,32.80
2023-04-18T12:37:04.663Z,32.47
2023-04-18T12:38:04.561Z,32.52
2023-04-18T12:39:04.562Z,32.75
2023-04-18T12:40:04.562Z,32.97
2023-04-18T12:41:04.588Z,33.01
2023-04-18T12:42:04.667Z,33.02
2023-04-18T12:43:04.634Z,32.88
2023-04-18T12:44:04.599Z,32.75
2023-04-18T12:45:04.618Z,32.75
2023-04-18T12:46:04.631Z,32.61
2023-04-18T12:47:04.798Z,32.69
2023-04-18T12:48:04.685Z,32.75
2023-04-18T12:49:04.760Z,32.29
2023-04-18T12:50:04.653Z,32.15
2023-04-18T12:51:04.649Z,31.95
2023-04-18T12:52:04.687Z,31.83
2023-04-18T12:53:04.677Z,31.70
2023-04-18T12:54:04.734Z,31.28
2023-04-18T12:55:04.742Z,30.91